createdAt,value
2016-11-09T00:00:37.070Z,0
2016-11-09T00:01:47.544Z,0
2016-11-09T00:02:57.984Z,0
2016-11-09T00:04:08.420Z,0
2016-11-09T00:05:18.863Z,0
2016-11-09T00:06:29.500Z,0
2016-11-09T00:07:39.976Z,0
2016-11-09T00:08:50.412Z,0
2016-11-09T00:10:15.393Z,0
2016-11-09T00:11:25.828Z,0
2016-11-09T00:12:36.275Z,0
2016-11-09T00:13:46.715Z,0
2016-11-09T00:15:11.699Z,0
2016-11-09T00:16:22.239Z,0
2016-11-09T00:17:32.679Z,0
2016-11-09T00:18:43.609Z,0
2016-11-09T00:19:54.053Z,0
2016-11-09T00:21:04.497Z,0
2016-11-09T00:22:14.944Z,0
2016-11-09T00:23:25.376Z,0
2016-11-09T00:24:50.264Z,0
2016-11-09T00:26:00.589Z,0
2016-11-09T00:27:10.908Z,0
2016-11-09T00:28:21.229Z,0
2016-11-09T00:29:31.549Z,0
2016-11-09T00:30:41.869Z,0
2016-11-09T00:31:52.224Z,0
2016-11-09T00:33:02.646Z,0
2016-11-09T00:34:12.970Z,0
2016-11-09T00:35:23.287Z,0
2016-11-09T00:36:33.611Z,0
2016-11-09T00:37:43.933Z,0
2016-11-09T00:40:19.141Z,0
2016-11-09T00:41:29.464Z,0
2016-11-09T00:42:39.818Z,0
2016-11-09T00:43:50.136Z,0
2016-11-09T00:45:00.459Z,0
2016-11-09T00:46:25.351Z,0
2016-11-09T00:47:35.678Z,0
2016-11-09T00:50:11.364Z,0
2016-11-09T00:51:21.706Z,0
2016-11-09T00:52:32.027Z,0
2016-11-09T00:53:42.347Z,0
2016-11-09T00:54:52.674Z,0
2016-11-09T00:56:03.211Z,0
2016-11-09T00:57:14.144Z,0
2016-11-09T00:58:24.621Z,0
2016-11-09T00:59:35.074Z,0
2016-11-09T01:00:45.524Z,0
2016-11-09T01:01:55.982Z,0
2016-11-09T01:03:06.430Z,0
2016-11-09T01:04:16.952Z,0
2016-11-09T01:05:27.410Z,0
2016-11-09T01:06:37.916Z,0
2016-11-09T01:10:39.061Z,0
2016-11-09T01:12:04.050Z,0
2016-11-09T01:13:14.490Z,0
2016-11-09T01:14:24.929Z,0
2016-11-09T01:15:35.399Z,0
2016-11-09T01:16:45.848Z,0
2016-11-09T01:18:10.830Z,0
2016-11-09T01:19:21.271Z,0
2016-11-09T01:20:32.218Z,0
2016-11-09T01:21:42.655Z,0
2016-11-09T01:23:07.876Z,0
2016-11-09T01:24:18.315Z,0
2016-11-09T01:25:43.301Z,0
2016-11-09T01:26:53.742Z,0
2016-11-09T01:28:04.221Z,0
2016-11-09T01:29:14.656Z,0
2016-11-09T01:30:25.096Z,0
2016-11-09T01:31:35.569Z,0
2016-11-09T01:32:46.007Z,0
2016-11-09T01:33:56.448Z,0
2016-11-09T01:35:06.895Z,0
2016-11-09T01:36:17.335Z,0
2016-11-09T01:37:27.778Z,0
2016-11-09T01:38:38.222Z,0
2016-11-09T01:39:48.699Z,0
2016-11-09T01:40:59.140Z,0
2016-11-09T01:42:09.580Z,0
2016-11-09T01:43:20.018Z,0
2016-11-09T01:44:30.458Z,0
2016-11-09T01:45:40.904Z,0
2016-11-09T01:46:51.345Z,0
2016-11-09T01:48:01.783Z,0
2016-11-09T01:49:12.225Z,0
2016-11-09T01:50:22.665Z,0
2016-11-09T01:51:33.104Z,0
2016-11-09T01:52:43.544Z,0
2016-11-09T01:53:53.986Z,0
2016-11-09T01:56:29.405Z,0
2016-11-09T01:57:39.972Z,0
2016-11-09T01:58:50.411Z,0
2016-11-09T02:00:00.848Z,0
2016-11-09T02:01:11.330Z,0
2016-11-09T02:02:21.774Z,0
2016-11-09T02:03:32.410Z,0
2016-11-09T02:04:42.869Z,0
2016-11-09T02:05:53.311Z,0
2016-11-09T02:07:03.748Z,0
2016-11-09T02:08:14.192Z,0
2016-11-09T02:09:24.837Z,0
2016-11-09T02:10:35.340Z,0
2016-11-09T02:11:45.780Z,0
2016-11-09T02:12:56.216Z,0
2016-11-09T02:14:06.660Z,0
2016-11-09T02:15:17.330Z,0
2016-11-09T02:16:27.766Z,0
2016-11-09T02:17:38.210Z,0
2016-11-09T02:19:03.193Z,0
2016-11-09T02:20:13.732Z,0
2016-11-09T02:21:24.174Z,0
2016-11-09T02:22:34.610Z,0
2016-11-09T02:23:45.052Z,0
2016-11-09T02:24:55.492Z,0
2016-11-09T02:26:20.500Z,0
2016-11-09T02:27:30.944Z,0
2016-11-09T02:28:55.928Z,0
2016-11-09T02:30:06.368Z,0
2016-11-09T02:31:32.051Z,0
2016-11-09T02:32:42.487Z,0
2016-11-09T02:33:52.967Z,0
2016-11-09T02:35:03.349Z,0
2016-11-09T02:36:13.774Z,0
2016-11-09T02:37:24.095Z,0
2016-11-09T02:38:34.451Z,0
2016-11-09T02:39:44.775Z,0
2016-11-09T02:40:55.093Z,0
2016-11-09T02:42:05.532Z,0
2016-11-09T02:43:15.864Z,0
2016-11-09T02:44:26.185Z,0
2016-11-09T02:45:36.509Z,0
2016-11-09T02:46:46.827Z,0
2016-11-09T02:47:57.348Z,0
2016-11-09T02:49:07.678Z,0
2016-11-09T02:50:18.005Z,0
2016-11-09T02:51:28.328Z,0
2016-11-09T02:52:38.651Z,0
2016-11-09T02:53:48.972Z,0
2016-11-09T02:54:59.294Z,0
2016-11-09T02:56:09.612Z,0
2016-11-09T02:57:19.934Z,0
2016-11-09T02:58:30.252Z,0
2016-11-09T02:59:40.672Z,0
2016-11-09T03:01:05.566Z,0
2016-11-09T03:02:15.889Z,0
2016-11-09T03:03:26.684Z,0
2016-11-09T03:04:37.104Z,0
2016-11-09T03:05:47.430Z,0
2016-11-09T03:06:57.753Z,0
2016-11-09T03:08:08.074Z,0
2016-11-09T03:09:18.401Z,0
2016-11-09T03:10:28.733Z,0
2016-11-09T03:11:39.055Z,0
2016-11-09T03:12:49.952Z,0
2016-11-09T03:14:00.368Z,0
2016-11-09T03:15:25.431Z,0
2016-11-09T03:16:35.859Z,0
2016-11-09T03:17:46.268Z,0
2016-11-09T03:18:56.686Z,0
2016-11-09T03:20:07.097Z,0
2016-11-09T03:21:17.612Z,0
2016-11-09T03:22:28.028Z,0
2016-11-09T03:23:38.442Z,0
2016-11-09T03:24:48.855Z,0
2016-11-09T03:25:59.272Z,0
2016-11-09T03:27:09.686Z,0
2016-11-09T03:28:20.102Z,0
2016-11-09T03:29:30.514Z,0
2016-11-09T03:30:40.926Z,0
2016-11-09T03:31:51.340Z,0
2016-11-09T03:33:01.953Z,0
2016-11-09T03:34:12.364Z,0
2016-11-09T03:35:22.780Z,0
2016-11-09T03:36:33.193Z,0
2016-11-09T03:37:58.257Z,0
2016-11-09T03:39:08.668Z,0
2016-11-09T03:40:19.079Z,0
2016-11-09T03:41:29.522Z,0
2016-11-09T03:42:39.936Z,0
2016-11-09T03:45:15.515Z,0
2016-11-09T03:46:26.048Z,0
2016-11-09T03:47:36.581Z,0
2016-11-09T03:48:47.110Z,0
2016-11-09T03:49:57.643Z,0
2016-11-09T03:51:08.172Z,0
2016-11-09T03:52:18.737Z,0
2016-11-09T03:53:29.270Z,0
2016-11-09T03:54:40.412Z,0
2016-11-09T03:55:50.945Z,0
2016-11-09T03:57:01.475Z,0
2016-11-09T03:58:11.912Z,0
2016-11-09T03:59:22.355Z,0
2016-11-09T04:00:32.991Z,0
2016-11-09T04:01:43.426Z,0
2016-11-09T04:02:53.870Z,0
2016-11-09T04:04:04.309Z,0
2016-11-09T04:05:14.748Z,0
2016-11-09T04:06:25.289Z,0
2016-11-09T04:07:35.763Z,0
2016-11-09T04:08:46.205Z,0
2016-11-09T04:09:56.645Z,0
2016-11-09T04:11:07.084Z,0
2016-11-09T04:12:18.011Z,0
2016-11-09T04:13:28.652Z,0
2016-11-09T04:14:39.089Z,0
2016-11-09T04:15:49.528Z,0
2016-11-09T04:16:59.972Z,0
2016-11-09T04:18:10.416Z,0
2016-11-09T04:19:20.887Z,0
2016-11-09T04:20:31.323Z,0
2016-11-09T04:21:41.762Z,0
2016-11-09T04:22:52.701Z,0
2016-11-09T04:24:03.137Z,0
2016-11-09T04:25:13.574Z,0
2016-11-09T04:26:24.012Z,0
2016-11-09T04:27:34.448Z,0
2016-11-09T04:28:44.898Z,0
2016-11-09T04:29:55.338Z,0
2016-11-09T04:31:05.783Z,0
2016-11-09T04:32:16.222Z,0
2016-11-09T04:33:26.697Z,0
2016-11-09T04:34:37.149Z,0
2016-11-09T04:35:48.179Z,0
2016-11-09T04:36:58.617Z,0
2016-11-09T04:38:09.547Z,0
2016-11-09T04:39:19.984Z,0
2016-11-09T04:40:30.938Z,0
2016-11-09T04:41:41.480Z,0
2016-11-09T04:42:51.924Z,0
2016-11-09T04:44:02.368Z,0
2016-11-09T04:45:12.803Z,0
2016-11-09T04:46:23.242Z,0
2016-11-09T04:47:33.687Z,0
2016-11-09T04:48:44.132Z,0
2016-11-09T04:49:54.468Z,0
2016-11-09T04:51:04.789Z,0
2016-11-09T04:52:15.113Z,0
2016-11-09T04:53:25.908Z,0
2016-11-09T04:54:36.230Z,0
2016-11-09T04:55:46.559Z,0
2016-11-09T04:56:56.883Z,0
2016-11-09T04:58:07.202Z,0
2016-11-09T04:59:17.628Z,0
2016-11-09T05:00:57.119Z,0
2016-11-09T05:02:07.440Z,0
2016-11-09T05:03:17.811Z,0
2016-11-09T05:04:28.231Z,0
2016-11-09T05:05:38.553Z,0
2016-11-09T05:06:48.878Z,0
2016-11-09T05:07:59.198Z,0
2016-11-09T05:09:09.522Z,0
2016-11-09T05:10:19.847Z,0
2016-11-09T05:11:44.740Z,0
2016-11-09T05:12:55.101Z,0
2016-11-09T05:14:05.420Z,0
2016-11-09T05:15:15.742Z,0
2016-11-09T05:16:26.063Z,0
2016-11-09T05:17:36.381Z,0
2016-11-09T05:18:46.707Z,0
2016-11-09T05:19:57.028Z,0
2016-11-09T05:21:07.386Z,0
2016-11-09T05:22:17.710Z,0
2016-11-09T05:23:28.033Z,0
2016-11-09T05:24:38.352Z,0
2016-11-09T05:25:48.673Z,0
2016-11-09T05:26:59.095Z,0
2016-11-09T05:28:09.422Z,0
2016-11-09T05:29:19.741Z,0
2016-11-09T05:30:30.089Z,0
2016-11-09T05:31:40.448Z,0
2016-11-09T05:33:05.334Z,0
2016-11-09T05:34:15.656Z,0
2016-11-09T05:35:25.975Z,0
2016-11-09T05:36:36.294Z,0
2016-11-09T05:37:46.613Z,0
2016-11-09T05:38:56.933Z,0
2016-11-09T05:40:07.262Z,0
2016-11-09T05:41:17.583Z,0
2016-11-09T05:42:27.900Z,0
2016-11-09T05:43:38.796Z,0
2016-11-09T05:44:49.120Z,0
2016-11-09T05:45:59.439Z,0
2016-11-09T05:47:09.763Z,0
2016-11-09T05:48:20.560Z,0
2016-11-09T05:49:30.880Z,0
2016-11-09T05:50:41.207Z,0
2016-11-09T05:51:51.528Z,0
2016-11-09T05:53:01.847Z,0
2016-11-09T05:54:12.169Z,0
2016-11-09T05:55:22.591Z,0
2016-11-09T05:56:32.919Z,0
2016-11-09T05:57:43.242Z,0
2016-11-09T05:58:53.563Z,0
2016-11-09T06:00:03.886Z,0
2016-11-09T06:01:14.405Z,0
2016-11-09T06:04:04.660Z,0
2016-11-09T06:05:15.380Z,0
2016-11-09T06:06:25.700Z,0
2016-11-09T06:07:36.018Z,0
2016-11-09T06:08:46.340Z,0
2016-11-09T06:09:56.658Z,0
2016-11-09T06:11:21.752Z,0
2016-11-09T06:12:32.070Z,0
2016-11-09T06:13:42.872Z,0
2016-11-09T06:14:53.191Z,0
2016-11-09T06:16:03.512Z,0
2016-11-09T06:17:13.835Z,0
2016-11-09T06:18:24.159Z,0
2016-11-09T06:19:34.487Z,0
2016-11-09T06:20:44.807Z,0
2016-11-09T06:22:09.897Z,0
2016-11-09T06:23:20.213Z,0
2016-11-09T06:24:30.536Z,0
2016-11-09T06:25:40.857Z,0
2016-11-09T06:26:51.176Z,0
2016-11-09T06:28:01.501Z,0
2016-11-09T06:29:11.822Z,0
2016-11-09T06:30:36.793Z,0
2016-11-09T06:31:47.263Z,0
2016-11-09T06:32:57.699Z,0
2016-11-09T06:34:08.140Z,0
2016-11-09T06:35:18.580Z,0
2016-11-09T06:36:29.020Z,0
2016-11-09T06:37:39.461Z,0
2016-11-09T06:38:49.900Z,0
2016-11-09T06:40:00.372Z,0
2016-11-09T06:44:01.020Z,0
2016-11-09T06:45:11.490Z,0
2016-11-09T06:46:21.923Z,0
2016-11-09T06:47:32.363Z,0
2016-11-09T06:48:42.845Z,0
2016-11-09T06:49:53.382Z,0
2016-11-09T06:51:04.310Z,0
2016-11-09T06:52:14.747Z,0
2016-11-09T06:53:25.187Z,0
2016-11-09T06:54:35.624Z,0
2016-11-09T06:55:46.168Z,0
2016-11-09T06:58:21.586Z,0
2016-11-09T06:59:32.028Z,0
2016-11-09T07:00:42.464Z,0
2016-11-09T07:01:52.900Z,0
2016-11-09T07:03:03.341Z,0
2016-11-09T07:04:13.672Z,0
2016-11-09T07:05:23.994Z,0
2016-11-09T07:06:34.316Z,0
2016-11-09T07:07:44.638Z,0
2016-11-09T07:08:54.990Z,0
2016-11-09T07:10:05.346Z,0
2016-11-09T07:11:15.671Z,0
2016-11-09T07:12:25.992Z,0
2016-11-09T07:13:36.793Z,0
2016-11-09T07:14:47.112Z,0
2016-11-09T07:15:57.427Z,0
2016-11-09T07:17:07.745Z,0
2016-11-09T07:18:18.269Z,0
2016-11-09T07:19:28.591Z,0
2016-11-09T07:20:38.932Z,0
2016-11-09T07:21:49.254Z,0
2016-11-09T07:22:59.575Z,0
2016-11-09T07:24:24.661Z,0
2016-11-09T07:25:34.987Z,0
2016-11-09T07:26:45.307Z,0
2016-11-09T07:27:55.626Z,0
2016-11-09T07:29:05.949Z,0
2016-11-09T07:30:16.272Z,0
2016-11-09T07:31:27.071Z,0
2016-11-09T07:32:37.394Z,0
2016-11-09T07:34:16.852Z,0
2016-11-09T07:35:27.172Z,0
2016-11-09T07:36:37.843Z,0
2016-11-09T07:37:48.267Z,0
2016-11-09T07:38:58.724Z,0
2016-11-09T07:40:09.174Z,0
2016-11-09T07:41:19.613Z,0
2016-11-09T07:42:30.052Z,0
2016-11-09T07:43:55.036Z,0
2016-11-09T07:45:05.611Z,0
2016-11-09T07:46:16.047Z,0
2016-11-09T07:48:51.499Z,0
2016-11-09T07:50:01.940Z,0
2016-11-09T07:51:26.924Z,0
2016-11-09T07:52:51.906Z,0
2016-11-09T07:54:02.341Z,0
2016-11-09T07:55:12.980Z,0
2016-11-09T07:56:23.416Z,0
2016-11-09T07:57:34.351Z,0
2016-11-09T07:58:44.787Z,0
2016-11-09T07:59:55.229Z,0
2016-11-09T08:01:05.764Z,0
2016-11-09T08:02:16.207Z,0
2016-11-09T08:03:26.645Z,0
2016-11-09T08:04:37.091Z,0
2016-11-09T08:05:47.532Z,0
2016-11-09T08:06:58.067Z,0
2016-11-09T08:08:08.506Z,0
2016-11-09T08:09:18.946Z,0
2016-11-09T08:10:29.394Z,0
2016-11-09T08:11:54.372Z,0
2016-11-09T08:13:04.813Z,0
2016-11-09T08:14:15.738Z,0
2016-11-09T08:15:40.723Z,0
2016-11-09T08:16:51.159Z,0
2016-11-09T08:18:01.795Z,0
2016-11-09T08:19:12.232Z,0
2016-11-09T08:20:37.215Z,0
2016-11-09T08:21:47.651Z,0
2016-11-09T08:22:58.085Z,0
2016-11-09T08:24:08.526Z,0
2016-11-09T08:25:18.964Z,0
2016-11-09T08:26:29.929Z,0
2016-11-09T08:27:40.372Z,0
2016-11-09T08:28:50.809Z,0
2016-11-09T08:30:01.251Z,0
2016-11-09T08:31:12.182Z,0
2016-11-09T08:32:22.620Z,0
2016-11-09T08:33:33.059Z,0
2016-11-09T08:34:58.042Z,0
2016-11-09T08:36:08.477Z,0
2016-11-09T08:37:18.918Z,0
2016-11-09T08:38:29.392Z,0
2016-11-09T08:39:40.030Z,5
2016-11-09T08:40:50.505Z,5
2016-11-09T08:42:00.950Z,5
2016-11-09T08:43:11.389Z,5
2016-11-09T08:44:21.776Z,5
2016-11-09T08:45:32.193Z,5
2016-11-09T08:46:42.518Z,5
2016-11-09T08:47:52.839Z,5
2016-11-09T08:49:03.161Z,5
2016-11-09T08:50:13.515Z,5
2016-11-09T08:51:23.937Z,5
2016-11-09T08:52:34.735Z,5
2016-11-09T08:54:14.193Z,5
2016-11-09T08:55:24.522Z,5
2016-11-09T08:56:34.946Z,5
2016-11-09T08:57:59.833Z,5
2016-11-09T08:59:10.160Z,5
2016-11-09T09:00:20.482Z,5
2016-11-09T09:01:31.693Z,5
2016-11-09T09:02:42.054Z,5
2016-11-09T09:03:52.849Z,5
2016-11-09T09:05:03.171Z,5
2016-11-09T09:07:38.487Z,5
2016-11-09T09:08:48.807Z,5
2016-11-09T09:09:59.122Z,5
2016-11-09T09:11:09.933Z,5
2016-11-09T09:12:20.251Z,10
2016-11-09T09:13:30.768Z,10
2016-11-09T09:16:20.722Z,10
2016-11-09T09:17:31.134Z,10
2016-11-09T09:18:42.423Z,10
2016-11-09T09:19:52.954Z,15
2016-11-09T09:21:03.481Z,10
2016-11-09T09:22:14.011Z,10
2016-11-09T09:23:39.272Z,10
2016-11-09T09:24:49.805Z,10
2016-11-09T09:26:00.360Z,10
2016-11-09T09:27:10.925Z,10
2016-11-09T09:28:21.456Z,10
2016-11-09T09:29:32.084Z,10
2016-11-09T09:30:42.622Z,5
2016-11-09T09:31:53.154Z,5
2016-11-09T09:33:18.211Z,5
2016-11-09T09:34:28.990Z,5
2016-11-09T09:35:39.522Z,5
2016-11-09T09:36:50.047Z,5
2016-11-09T09:38:00.576Z,5
2016-11-09T09:39:11.606Z,5
2016-11-09T09:40:22.640Z,10
2016-11-09T09:41:33.174Z,10
2016-11-09T09:42:43.715Z,10
2016-11-09T09:43:54.245Z,10
2016-11-09T09:45:04.776Z,10
2016-11-09T09:46:15.402Z,10
2016-11-09T09:47:25.935Z,10
2016-11-09T09:48:36.464Z,10
2016-11-09T09:49:46.995Z,10
2016-11-09T09:50:57.523Z,10
2016-11-09T09:52:08.162Z,10
2016-11-09T09:53:18.692Z,10
2016-11-09T09:54:29.220Z,10
2016-11-09T09:55:39.753Z,10
2016-11-09T09:56:50.290Z,10
2016-11-09T09:59:26.074Z,10
2016-11-09T10:00:36.609Z,10
2016-11-09T10:02:01.665Z,10
2016-11-09T10:03:12.191Z,10
2016-11-09T10:04:22.727Z,10
2016-11-09T10:05:33.255Z,10
2016-11-09T10:06:43.785Z,10
2016-11-09T10:07:54.322Z,10
2016-11-09T10:09:05.054Z,10
2016-11-09T10:10:15.589Z,10
2016-11-09T10:11:26.274Z,15
2016-11-09T10:12:36.808Z,15
2016-11-09T10:13:47.340Z,15
2016-11-09T10:14:57.970Z,15
2016-11-09T10:16:08.499Z,15
2016-11-09T10:17:19.028Z,10
2016-11-09T10:18:29.558Z,10
2016-11-09T10:19:40.092Z,10
2016-11-09T10:20:50.658Z,10
2016-11-09T10:22:01.191Z,10
2016-11-09T10:23:11.731Z,15
2016-11-09T10:24:22.259Z,15
2016-11-09T10:25:32.789Z,15
2016-11-09T10:26:43.529Z,15
2016-11-09T10:27:54.557Z,15
2016-11-09T10:29:05.131Z,15
2016-11-09T10:30:15.696Z,15
2016-11-09T10:31:26.235Z,15
2016-11-09T10:32:36.798Z,15
2016-11-09T10:33:47.822Z,10
2016-11-09T10:34:58.382Z,15
2016-11-09T10:36:08.913Z,15
2016-11-09T10:37:19.445Z,15
2016-11-09T10:38:30.076Z,15
2016-11-09T10:39:40.610Z,15
2016-11-09T10:40:51.145Z,15
2016-11-09T10:42:01.676Z,15
2016-11-09T10:43:12.119Z,15
2016-11-09T10:44:37.105Z,15
2016-11-09T10:46:02.090Z,15
2016-11-09T10:47:13.016Z,15
2016-11-09T10:48:23.464Z,15
2016-11-09T10:49:48.449Z,15
2016-11-09T10:50:58.889Z,15
2016-11-09T10:52:09.349Z,15
2016-11-09T10:53:19.787Z,15
2016-11-09T10:54:30.433Z,15
2016-11-09T10:55:40.880Z,15
2016-11-09T10:56:51.320Z,15
2016-11-09T10:58:16.316Z,15
2016-11-09T10:59:26.855Z,15
2016-11-09T11:00:37.292Z,15
2016-11-09T11:01:47.742Z,15
2016-11-09T11:03:12.723Z,15
2016-11-09T11:04:23.655Z,15
2016-11-09T11:05:34.995Z,15
2016-11-09T11:06:46.900Z,15
2016-11-09T11:07:57.336Z,15
2016-11-09T11:09:07.773Z,20
2016-11-09T11:10:18.209Z,20
2016-11-09T11:11:28.897Z,20
2016-11-09T11:12:39.334Z,20
2016-11-09T11:14:04.315Z,20
2016-11-09T11:15:14.762Z,20
2016-11-09T11:16:25.298Z,20
2016-11-09T11:17:35.736Z,20
2016-11-09T11:18:46.695Z,20
2016-11-09T11:19:57.163Z,20
2016-11-09T11:21:07.631Z,20
2016-11-09T11:22:18.273Z,20
2016-11-09T11:23:28.711Z,20
2016-11-09T11:24:39.150Z,20
2016-11-09T11:25:49.595Z,20
2016-11-09T11:27:14.579Z,20
2016-11-09T11:28:25.016Z,20
2016-11-09T11:29:35.455Z,20
2016-11-09T11:30:45.894Z,20
2016-11-09T11:31:56.230Z,20
2016-11-09T11:33:06.758Z,20
2016-11-09T11:34:17.116Z,20
2016-11-09T11:35:27.439Z,20
2016-11-09T11:36:37.759Z,20
2016-11-09T11:37:48.114Z,20
2016-11-09T11:39:13.013Z,20
2016-11-09T11:40:23.338Z,20
2016-11-09T11:42:58.587Z,20
2016-11-09T11:45:33.809Z,25
2016-11-09T11:46:44.125Z,25
2016-11-09T11:48:09.015Z,25
2016-11-09T11:49:19.373Z,25
2016-11-09T11:50:29.697Z,25
2016-11-09T11:51:40.022Z,25
2016-11-09T11:52:50.349Z,30
2016-11-09T11:54:00.673Z,30
2016-11-09T11:55:25.763Z,30
2016-11-09T11:56:36.089Z,30
2016-11-09T11:57:46.416Z,30
2016-11-09T11:58:56.747Z,30
2016-11-09T12:00:07.082Z,35
2016-11-09T12:01:17.436Z,35
2016-11-09T12:02:27.759Z,35
2016-11-09T12:03:38.091Z,35
2016-11-09T12:04:48.554Z,35
2016-11-09T12:05:59.196Z,35
2016-11-09T12:07:24.186Z,40
2016-11-09T12:08:34.628Z,40
2016-11-09T12:09:45.076Z,40
2016-11-09T12:10:55.519Z,45
2016-11-09T12:12:05.965Z,45
2016-11-09T12:13:16.499Z,45
2016-11-09T12:14:27.033Z,40
2016-11-09T12:15:37.600Z,40
2016-11-09T12:17:02.874Z,40
2016-11-09T12:18:13.596Z,45
2016-11-09T12:19:24.128Z,45
2016-11-09T12:20:34.667Z,45
2016-11-09T12:21:45.204Z,45
2016-11-09T12:23:10.265Z,45
2016-11-09T12:24:20.799Z,45
2016-11-09T12:25:45.868Z,45
2016-11-09T12:26:56.503Z,50
2016-11-09T12:28:07.036Z,60
2016-11-09T12:29:18.080Z,60
2016-11-09T12:30:28.624Z,55
2016-11-09T12:31:39.170Z,55
2016-11-09T12:32:49.857Z,60
2016-11-09T12:34:29.943Z,60
2016-11-09T12:35:55.019Z,60
2016-11-09T12:37:05.756Z,60
2016-11-09T12:38:31.703Z,60
2016-11-09T12:39:57.172Z,70
2016-11-09T12:41:23.114Z,70
2016-11-09T12:42:34.724Z,65
2016-11-09T12:43:45.176Z,65
2016-11-09T12:44:56.994Z,65
2016-11-09T12:46:22.172Z,60
2016-11-09T12:47:47.160Z,55
2016-11-09T12:48:57.581Z,60
2016-11-09T12:51:33.739Z,70
2016-11-09T12:52:44.153Z,60
2016-11-09T12:53:54.576Z,65
2016-11-09T12:55:34.308Z,60
2016-11-09T12:56:44.743Z,65
2016-11-09T12:59:34.705Z,70
2016-11-09T13:00:45.115Z,75
2016-11-09T13:01:55.530Z,70
2016-11-09T13:03:05.944Z,65
2016-11-09T13:04:16.361Z,70
2016-11-09T13:05:41.530Z,75
2016-11-09T13:06:51.949Z,75
2016-11-09T13:08:02.364Z,75
2016-11-09T13:09:12.785Z,75
2016-11-09T13:10:23.437Z,75
2016-11-09T18:11:19.330Z,10
2016-11-09T18:12:29.771Z,5
2016-11-09T18:13:40.216Z,5
2016-11-09T18:14:50.659Z,5
2016-11-09T18:16:01.101Z,5
2016-11-09T18:17:11.648Z,5
2016-11-09T18:18:22.094Z,5
2016-11-09T18:19:32.537Z,5
2016-11-09T18:20:42.983Z,5
2016-11-09T18:21:53.431Z,5
2016-11-09T18:23:04.082Z,5
2016-11-09T18:24:29.105Z,5
2016-11-09T18:25:39.556Z,5
2016-11-09T18:26:50.003Z,5
2016-11-09T18:28:01.038Z,5
2016-11-09T18:29:11.484Z,5
2016-11-09T18:30:21.931Z,5
2016-11-09T18:31:32.381Z,5
2016-11-09T18:32:42.834Z,5
2016-11-09T18:33:53.393Z,5
2016-11-09T18:35:03.860Z,5
2016-11-09T18:36:14.304Z,5
2016-11-09T18:37:39.295Z,5
2016-11-09T18:38:49.936Z,5
2016-11-09T18:40:00.886Z,5
2016-11-09T18:41:11.337Z,5
2016-11-09T18:42:21.783Z,10
2016-11-09T18:43:32.225Z,10
2016-11-09T18:44:57.213Z,10
2016-11-09T18:46:07.654Z,10
2016-11-09T18:47:18.104Z,5
2016-11-09T18:48:28.583Z,5
2016-11-09T18:49:39.032Z,5
2016-11-09T18:50:49.482Z,5
2016-11-09T18:51:59.929Z,5
2016-11-09T18:53:10.371Z,5
2016-11-09T18:54:20.822Z,5
2016-11-09T18:55:31.364Z,5
2016-11-09T18:56:41.807Z,5
2016-11-09T18:57:52.344Z,5
2016-11-09T18:59:02.882Z,5
2016-11-09T19:00:13.420Z,5
2016-11-09T19:01:38.684Z,0
2016-11-09T19:02:49.260Z,0
2016-11-09T19:03:59.802Z,0
2016-11-09T19:05:10.338Z,0
2016-11-09T19:06:20.874Z,0
2016-11-09T19:07:31.407Z,0
2016-11-09T19:08:41.944Z,0
2016-11-09T19:09:52.484Z,0
2016-11-09T19:11:17.749Z,0
2016-11-09T19:12:28.285Z,0
2016-11-09T19:13:38.827Z,0
2016-11-09T19:14:49.365Z,0
2016-11-09T19:15:59.903Z,0
2016-11-09T19:17:10.468Z,0
2016-11-09T19:18:21.005Z,0
2016-11-09T19:19:31.544Z,0
2016-11-09T19:20:42.085Z,0
2016-11-09T19:21:53.128Z,0
2016-11-09T19:23:03.867Z,0
2016-11-09T19:24:14.400Z,0
2016-11-09T19:25:24.936Z,0
2016-11-09T19:26:35.966Z,0
2016-11-09T19:27:46.501Z,0
2016-11-09T19:28:57.068Z,0
2016-11-09T19:30:07.608Z,0
